Time;durP1;ratioP1;P1;durP2;ratioP2;P2;SDS_P1;SDS_P2;PMS_P1;PMS_P2;Temp;Humidity;BMP_temperature;BMP_pressure;BME280_temperature;BME280_humidity;BME280_pressure;Samples;Min_cycle;Max_cycle;Signal;HPM_P1;HPM_P2
2021/04/10 00:02:26;;;;;;;8.35;2.47;;;;;;;10.28;57.72;101444.72;5016789;28;20042;-84
2021/04/10 00:04:52;;;;;;;6.93;2.38;;;;;;;10.25;57.27;101445.63;5016499;28;20022;-83
2021/04/10 00:07:19;;;;;;;11.55;2.50;;;;;;;10.26;57.32;101447.38;5015459;28;20022;-84
2021/04/10 00:09:45;;;;;;;8.95;2.78;;;;;;;10.26;57.14;101450.03;5011237;28;20030;-84
2021/04/10 00:12:12;;;;;;;13.07;2.55;;;;;;;10.25;57.54;101445.63;5024515;28;20459;-84
2021/04/10 00:14:39;;;;;;;9.55;3.03;;;;;;;10.22;57.43;101450.97;5013574;28;20030;-84
2021/04/10 00:17:05;;;;;;;11.63;3.25;;;;;;;10.20;57.72;101442.13;5007188;28;20054;-84
2021/04/10 00:19:33;;;;;;;9.77;2.80;;;;;;;10.20;57.78;101442.13;5007935;28;20061;-84
2021/04/10 00:21:59;;;;;;;6.68;3.13;;;;;;;10.19;57.64;101435.97;5008745;28;20033;-84
2021/04/10 00:24:26;;;;;;;10.35;2.92;;;;;;;10.16;57.56;101435.97;5022895;28;20473;-84
2021/04/10 00:26:52;;;;;;;6.47;3.22;;;;;;;10.10;58.03;101438.69;5015833;28;20091;-84
2021/04/10 00:29:19;;;;;;;11.65;3.25;;;;;;;10.11;57.89;101447.53;5013410;28;20029;-84
2021/04/10 00:31:46;;;;;;;7.45;2.88;;;;;;;10.10;57.78;101441.34;5008507;28;20500;-84
2021/04/10 00:34:13;;;;;;;7.07;3.40;;;;;;;10.10;57.79;101440.47;5002607;28;20030;-85
2021/04/10 00:36:39;;;;;;;11.18;3.42;;;;;;;10.11;57.88;101444.88;5007844;28;20033;-84
2021/04/10 00:39:06;;;;;;;10.05;3.28;;;;;;;10.10;58.07;101448.41;5014282;28;20137;-84
2021/04/10 00:41:33;;;;;;;8.48;3.60;;;;;;;10.09;58.16;101449.28;5017145;28;20115;-84
2021/04/10 00:44:02;;;;;;;8.93;2.90;;;;;;;10.04;57.97;101447.56;5018806;28;20037;-84
2021/04/10 00:46:38;;;;;;;11.27;3.30;;;;;;;10.09;57.93;101455.47;5024327;28;20033;-83
2021/04/10 00:49:18;;;;;;;12.05;3.28;;;;;;;10.04;58.49;101447.56;5029269;28;20030;-83
2021/04/10 00:51:52;;;;;;;8.73;3.47;;;;;;;10.01;58.02;101444.94;5017228;28;20030;-84
2021/04/10 00:54:19;;;;;;;6.35;2.53;;;;;;;9.98;58.28;101454.66;5015585;28;20034;-84
2021/04/10 00:56:46;;;;;;;11.07;3.60;;;;;;;9.93;58.51;101461.78;5008198;28;20022;-84
2021/04/10 00:59:12;;;;;;;5.97;2.30;;;;;;;9.94;58.31;101459.09;5026366;28;20045;-84
2021/04/10 01:01:39;;;;;;;10.80;3.05;;;;;;;9.94;58.01;101450.28;5015348;28;20030;-84
2021/04/10 01:04:07;;;;;;;11.10;3.03;;;;;;;9.86;58.13;101453.88;5020943;28;20041;-84
2021/04/10 01:06:33;;;;;;;10.57;2.75;;;;;;;9.87;58.46;101447.69;5011893;28;20069;-84
2021/04/10 01:09:00;;;;;;;6.15;2.05;;;;;;;9.88;58.18;101448.56;5028523;28;20518;-84
2021/04/10 01:11:58;;;;;;;10.80;2.63;;;;;;;9.98;57.89;101452.03;5026937;28;20038;-84
2021/04/10 01:17:09;;;;;;;5.20;2.42;;;;;;;9.95;57.80;101452.06;5050391;27;20419;-85
2021/04/10 01:28:31;;;;;;;8.23;2.25;;;;;;;9.97;58.13;101445.84;5060931;28;20366;-83
2021/04/10 01:31:01;;;;;;;10.10;2.65;;;;;;;9.93;58.20;101446.78;5009564;28;20030;-83
2021/04/10 01:33:30;;;;;;;12.63;2.47;;;;;;;9.92;58.00;101438.84;5012663;27;20033;-82
2021/04/10 01:36:00;;;;;;;12.20;2.67;;;;;;;9.93;57.96;101438.84;4991378;28;20033;-84
2021/04/10 01:38:30;;;;;;;7.32;2.97;;;;;;;9.93;58.21;101440.59;4993314;28;20438;-83
2021/04/10 01:41:04;;;;;;;10.80;2.65;;;;;;;9.98;58.20;101429.09;4992622;28;20026;-83
2021/04/10 01:43:33;;;;;;;9.02;2.65;;;;;;;9.94;57.89;101437.94;4995193;28;20030;-82
2021/04/10 01:46:02;;;;;;;8.77;2.00;;;;;;;9.87;58.60;101434.47;4998202;28;20492;-83
2021/04/10 01:48:31;;;;;;;5.88;2.47;;;;;;;9.87;58.22;101445.06;5034029;28;20051;-83
2021/04/10 01:51:00;;;;;;;9.18;2.53;;;;;;;9.88;58.51;101445.91;5018627;28;20030;-83
2021/04/10 01:53:28;;;;;;;6.65;2.80;;;;;;;9.88;58.42;101451.22;5007036;28;20022;-83
2021/04/10 01:55:56;;;;;;;13.10;3.65;;;;;;;9.89;58.27;101442.38;4983417;28;20038;-83
2021/04/10 01:58:24;;;;;;;10.63;2.75;;;;;;;9.90;58.48;101446.78;5004840;28;20029;-83
2021/04/10 02:00:51;;;;;;;9.43;2.42;;;;;;;9.92;58.48;101445.03;5027652;28;20095;-83
2021/04/10 02:03:20;;;;;;;14.07;2.88;;;;;;;9.93;58.30;101438.84;4995511;28;20023;-83
2021/04/10 02:05:48;;;;;;;11.85;3.50;;;;;;;9.95;58.44;101444.97;5005463;28;20084;-83
2021/04/10 02:08:18;;;;;;;7.90;2.28;;;;;;;9.89;58.37;101442.38;4996818;28;20031;-82
2021/04/10 02:10:45;;;;;;;6.60;2.20;;;;;;;9.81;58.44;101438.94;4998547;28;20068;-83
2021/04/10 02:13:13;;;;;;;7.43;2.25;;;;;;;9.84;58.84;101438.91;5025029;28;20022;-84
2021/04/10 02:15:40;;;;;;;16.23;2.83;;;;;;;9.83;58.62;101442.44;5020702;28;20030;-83
2021/04/10 02:18:07;;;;;;;6.63;2.10;;;;;;;9.82;58.72;101441.56;4991994;28;20497;-83
2021/04/10 02:20:33;;;;;;;12.02;2.28;;;;;;;9.85;58.18;101441.53;4996859;28;20070;-83
2021/04/10 02:22:59;;;;;;;10.95;2.72;;;;;;;9.84;58.88;101454.78;4996989;28;20385;-83
2021/04/10 02:25:27;;;;;;;13.13;2.40;;;;;;;9.84;58.37;101449.47;4994539;28;20440;-83
2021/04/10 02:27:54;;;;;;;13.27;2.70;;;;;;;9.83;58.93;101453.00;5003712;28;20034;-82
2021/04/10 02:30:22;;;;;;;10.38;2.83;;;;;;;9.83;58.96;101448.63;4996627;28;20030;-84
2021/04/10 02:32:56;;;;;;;7.53;2.08;;;;;;;9.87;58.49;101447.69;4989308;28;20683;-84
2021/04/10 02:38:03;;;;;;;12.70;1.98;;;;;;;9.83;59.15;101450.38;5081262;27;20401;-83
2021/04/10 02:40:34;;;;;;;14.65;2.50;;;;;;;9.83;58.89;101447.72;5066056;28;20364;-83
2021/04/10 02:43:06;;;;;;;13.55;2.65;;;;;;;9.82;59.12;101449.50;5059498;28;20060;-84
2021/04/10 02:45:33;;;;;;;5.72;2.03;;;;;;;9.79;59.13;101456.56;5065225;28;20035;-84
2021/04/10 02:48:05;;;;;;;8.07;2.63;;;;;;;9.85;58.82;101453.88;5054027;28;20074;-84
2021/04/10 02:50:32;;;;;;;12.50;2.40;;;;;;;9.80;58.82;101453.06;5057899;28;20029;-84
2021/04/10 02:53:04;;;;;;;8.23;2.65;;;;;;;9.86;59.19;101463.59;5049542;28;20029;-84
2021/04/10 02:55:37;;;;;;;12.25;3.90;;;;;;;9.87;59.08;101465.34;5054582;28;20036;-85
2021/04/10 02:58:07;;;;;;;11.23;2.22;;;;;;;9.88;58.85;101461.78;5063225;28;20418;-83
2021/04/10 03:00:35;;;;;;;14.75;2.92;;;;;;;9.86;59.29;101453.00;5063276;28;20410;-84
2021/04/10 03:03:04;;;;;;;9.80;3.05;;;;;;;9.90;59.13;101443.28;5059371;28;20380;-84
2021/04/10 03:05:32;;;;;;;12.15;2.33;;;;;;;9.95;58.83;101446.75;5053756;28;20146;-84
2021/04/10 03:07:59;;;;;;;12.75;3.13;;;;;;;9.94;59.22;101453.81;5060897;28;20025;-83
2021/04/10 03:10:26;;;;;;;8.90;2.72;;;;;;;9.95;58.66;101462.66;5057959;28;20072;-83
2021/04/10 03:12:53;;;;;;;11.73;2.90;;;;;;;9.96;58.92;101465.28;5057104;28;20372;-83
2021/04/10 03:15:20;;;;;;;11.10;3.63;;;;;;;9.99;59.11;101464.38;5061579;28;20064;-83
2021/04/10 03:17:47;;;;;;;12.13;2.97;;;;;;;9.97;58.72;101463.50;5059256;28;20033;-82
2021/04/10 03:20:16;;;;;;;12.15;3.42;;;;;;;9.99;58.74;101465.28;5057491;28;20067;-83
2021/04/10 03:22:45;;;;;;;14.63;3.10;;;;;;;10.02;58.65;101465.22;5065319;28;20124;-83
2021/04/10 03:25:14;;;;;;;8.45;3.45;;;;;;;10.04;58.82;101463.47;5062366;28;20076;-83
2021/04/10 03:27:42;;;;;;;9.73;2.50;;;;;;;10.03;58.83;101460.81;5056785;28;20028;-82
2021/04/10 03:30:11;;;;;;;9.80;2.78;;;;;;;10.04;58.74;101466.09;5065185;28;20025;-83
2021/04/10 03:32:39;;;;;;;8.88;2.83;;;;;;;10.00;58.56;101461.69;5060269;28;20041;-83
2021/04/10 03:35:07;;;;;;;10.45;3.38;;;;;;;9.96;58.76;101467.91;5056876;28;20112;-83
2021/04/10 03:37:33;;;;;;;13.70;3.10;;;;;;;9.96;58.42;101465.28;5059903;28;20041;-83
2021/04/10 03:40:00;;;;;;;12.30;3.58;;;;;;;9.93;58.92;101470.59;5063639;28;20186;-83
2021/04/10 03:42:38;;;;;;;10.43;3.22;;;;;;;10.02;58.63;101470.53;5069151;28;20029;-83
2021/04/10 03:45:06;;;;;;;8.40;2.75;;;;;;;9.94;58.63;101476.78;5069339;28;20098;-83
2021/04/10 03:47:32;;;;;;;8.40;2.92;;;;;;;9.94;58.80;101475.00;5057844;28;20040;-83
2021/04/10 03:49:59;;;;;;;9.57;3.03;;;;;;;9.95;58.71;101473.25;5045734;28;20148;-83
2021/04/10 03:52:25;;;;;;;11.82;2.67;;;;;;;9.96;58.57;101475.88;5053061;28;20052;-84
2021/04/10 03:54:51;;;;;;;5.95;2.53;;;;;;;9.93;58.21;101475.91;5054825;28;20037;-83
2021/04/10 03:57:18;;;;;;;9.57;2.22;;;;;;;9.96;58.47;101475.00;5038142;28;20057;-83
2021/04/10 03:59:44;;;;;;;10.07;2.40;;;;;;;9.96;58.15;101475.88;5053112;28;20472;-82
2021/04/10 04:02:11;;;;;;;8.10;2.72;;;;;;;9.98;58.31;101474.09;5049266;28;20382;-82
2021/04/10 04:04:37;;;;;;;5.53;2.05;;;;;;;9.99;58.42;101469.66;5051026;28;20114;-83
2021/04/10 04:07:04;;;;;;;8.63;2.78;;;;;;;10.00;57.88;101471.44;5043761;28;20470;-82
2021/04/10 04:09:30;;;;;;;6.65;2.15;;;;;;;9.97;57.97;101477.63;5039131;28;20029;-83
2021/04/10 04:11:56;;;;;;;9.40;2.17;;;;;;;9.98;57.94;101474.09;5045079;28;20032;-82
2021/04/10 04:14:23;;;;;;;7.93;2.28;;;;;;;9.98;58.11;101478.50;5043524;28;20040;-83
2021/04/10 04:16:49;;;;;;;12.05;2.67;;;;;;;9.96;57.84;101483.81;5045823;28;20033;-83
2021/04/10 04:19:15;;;;;;;6.47;1.98;;;;;;;9.93;57.72;101486.50;5043693;28;20021;-83
2021/04/10 04:21:43;;;;;;;9.43;2.13;;;;;;;9.92;57.88;101476.78;5051483;28;20029;-83
2021/04/10 04:24:09;;;;;;;9.43;1.80;;;;;;;9.86;58.09;101469.75;5049761;28;20032;-83
2021/04/10 04:26:35;;;;;;;12.43;2.15;;;;;;;9.85;57.87;101473.28;5045064;28;20043;-83
2021/04/10 04:29:02;;;;;;;7.43;1.80;;;;;;;9.83;58.02;101469.78;5045667;28;20069;-84
2021/04/10 04:31:28;;;;;;;9.70;1.85;;;;;;;9.79;57.76;101477.75;5042684;28;20468;-83
2021/04/10 04:33:55;;;;;;;7.32;1.55;;;;;;;9.82;57.91;101486.56;5042257;28;20040;-83
2021/04/10 04:36:21;;;;;;;7.35;1.65;;;;;;;9.79;57.70;101483.91;5043373;28;20147;-83
2021/04/10 04:38:48;;;;;;;7.85;1.73;;;;;;;9.77;58.07;101479.53;5039169;28;20033;-83
2021/04/10 04:41:14;;;;;;;7.53;1.63;;;;;;;9.77;57.56;101490.09;5052542;28;20125;-81
2021/04/10 04:43:40;;;;;;;6.20;1.83;;;;;;;9.75;57.50;101497.19;5039460;28;20064;-83
2021/04/10 04:46:06;;;;;;;4.97;1.58;;;;;;;9.71;57.57;101491.91;5045046;28;20030;-83
2021/04/10 04:48:33;;;;;;;10.02;1.88;;;;;;;9.72;57.96;101498.09;5034167;28;20448;-83
2021/04/10 04:50:59;;;;;;;4.63;1.65;;;;;;;9.69;57.62;101499.00;5038189;28;20060;-83
2021/04/10 04:53:25;;;;;;;6.13;1.80;;;;;;;9.70;57.87;101494.56;5052929;28;20028;-83
2021/04/10 04:55:51;;;;;;;10.05;2.03;;;;;;;9.68;57.88;101502.53;5044013;28;20091;-83
2021/04/10 04:58:17;;;;;;;7.28;1.85;;;;;;;9.66;57.74;101488.41;5040191;28;20108;-84
2021/04/10 05:00:44;;;;;;;4.55;1.65;;;;;;;9.66;57.86;101488.41;5037118;28;20040;-83
2021/04/10 05:03:10;;;;;;;4.70;1.48;;;;;;;9.64;57.88;101486.66;5038840;28;20021;-83
2021/04/10 05:05:36;;;;;;;6.82;1.90;;;;;;;9.64;57.82;101487.53;5041442;28;20120;-84
2021/04/10 05:08:02;;;;;;;6.93;2.10;;;;;;;9.65;57.63;101489.28;5046689;28;20045;-83
2021/04/10 05:10:28;;;;;;;7.50;2.28;;;;;;;9.63;58.05;101492.84;5039083;28;20113;-83
2021/04/10 05:12:55;;;;;;;5.93;2.22;;;;;;;9.64;57.77;101487.53;5047336;28;20032;-84
2021/04/10 05:15:21;;;;;;;7.10;2.20;;;;;;;9.62;58.44;101489.31;5047391;28;20105;-83
2021/04/10 05:17:47;;;;;;;6.53;2.25;;;;;;;9.61;58.03;101490.22;5045961;28;20124;-83
2021/04/10 05:20:14;;;;;;;5.32;1.80;;;;;;;9.59;58.37;101496.41;5034933;28;20029;-83
2021/04/10 05:22:40;;;;;;;9.18;2.00;;;;;;;9.60;57.97;101498.16;5043447;28;20112;-83
2021/04/10 05:25:08;;;;;;;9.55;2.38;;;;;;;9.59;58.01;101501.69;5034358;28;20106;-83
2021/04/10 05:27:34;;;;;;;9.40;2.85;;;;;;;9.59;58.14;101501.69;5045324;28;20152;-83
2021/04/10 05:30:00;;;;;;;8.55;2.10;;;;;;;9.58;58.37;101500.78;5034888;28;20402;-83
2021/04/10 05:32:27;;;;;;;6.60;2.50;;;;;;;9.55;58.24;101506.97;5043154;28;20044;-83
2021/04/10 05:34:53;;;;;;;7.65;2.30;;;;;;;9.57;58.47;101506.09;5045703;28;20033;-83
2021/04/10 05:37:20;;;;;;;7.78;2.08;;;;;;;9.61;58.27;101506.09;5039779;28;20044;-83
2021/04/10 05:39:47;;;;;;;5.97;2.00;;;;;;;9.59;58.65;101515.78;5045558;28;20056;-83
2021/04/10 05:42:13;;;;;;;5.32;1.55;;;;;;;9.62;58.11;101523.72;5044645;28;20112;-84
2021/04/10 05:44:40;;;;;;;8.27;1.67;;;;;;;9.66;58.26;101511.34;5036931;28;20025;-83
2021/04/10 05:47:06;;;;;;;6.82;2.45;;;;;;;9.66;58.27;101520.16;5020241;28;20125;-84
2021/04/10 05:49:32;;;;;;;8.70;1.63;;;;;;;9.70;57.92;101526.31;5049429;28;20025;-84
2021/04/10 05:51:58;;;;;;;9.05;1.70;;;;;;;9.69;58.04;101525.47;5038461;28;20030;-84
2021/04/10 05:54:24;;;;;;;4.72;1.55;;;;;;;9.74;57.66;101527.19;5043870;28;20033;-84
2021/04/10 05:56:51;;;;;;;5.20;1.95;;;;;;;9.76;57.75;101525.38;5047251;28;20525;-84
2021/04/10 05:59:17;;;;;;;8.52;1.90;;;;;;;9.80;57.63;101537.75;5051137;28;20033;-84
2021/04/10 06:01:43;;;;;;;4.85;1.58;;;;;;;9.81;57.94;101531.56;5044228;28;20021;-84
2021/04/10 06:04:10;;;;;;;3.50;1.60;;;;;;;9.88;58.03;101535.91;5043861;28;20173;-83
2021/04/10 06:06:36;;;;;;;6.60;1.50;;;;;;;9.90;57.70;101538.56;5043023;28;20029;-83
2021/04/10 06:09:03;;;;;;;4.90;1.85;;;;;;;9.94;57.46;101533.22;5039932;28;20030;-83
2021/04/10 06:11:29;;;;;;;9.88;2.38;;;;;;;9.96;57.63;101539.41;5037979;28;20435;-83
2021/04/10 06:13:55;;;;;;;9.52;2.28;;;;;;;10.00;57.77;101535.84;5044588;28;20030;-84
2021/04/10 06:16:22;;;;;;;7.88;2.00;;;;;;;10.00;57.31;101535.84;5034141;28;20032;-83
2021/04/10 06:18:48;;;;;;;7.82;2.67;;;;;;;10.04;57.76;101548.19;5035916;28;20353;-83
2021/04/10 06:21:14;;;;;;;5.85;1.80;;;;;;;10.06;57.87;101547.31;5034039;28;20025;-83
2021/04/10 06:23:42;;;;;;;7.10;2.17;;;;;;;10.10;57.45;101551.69;5035646;28;20504;-83
2021/04/10 06:26:09;;;;;;;10.43;2.28;;;;;;;10.16;57.61;101556.94;5033889;28;20488;-83
2021/04/10 06:28:35;;;;;;;6.85;1.92;;;;;;;10.25;57.45;101546.25;5033998;28;20393;-82
2021/04/10 06:31:02;;;;;;;5.75;2.08;;;;;;;10.28;57.05;101542.69;5041355;28;20025;-82
2021/04/10 06:33:28;;;;;;;8.23;2.28;;;;;;;10.29;57.32;101536.53;5041431;28;20022;-83
2021/04/10 06:35:54;;;;;;;12.52;3.33;;;;;;;10.29;57.25;101548.03;5045929;28;20044;-83
2021/04/10 06:38:20;;;;;;;4.97;1.98;;;;;;;10.35;56.90;101537.38;5036433;28;20075;-83
2021/04/10 06:40:46;;;;;;;10.32;2.85;;;;;;;10.42;56.79;101538.22;5039071;28;20167;-83
2021/04/10 06:43:13;;;;;;;6.20;2.40;;;;;;;10.39;56.88;101540.00;5041973;28;20037;-84
2021/04/10 06:45:39;;;;;;;11.60;2.65;;;;;;;10.41;56.82;101541.75;5037392;28;20029;-83
2021/04/10 06:48:12;;;;;;;6.78;2.45;;;;;;;10.50;56.67;101548.75;5050598;28;20025;-83
2021/04/10 06:50:38;;;;;;;7.00;2.45;;;;;;;10.44;56.84;101544.41;5042125;28;20558;-83
2021/04/10 06:53:08;;;;;;;9.02;2.65;;;;;;;10.52;56.84;101546.97;5037695;28;20065;-83
2021/04/10 06:55:41;;;;;;;10.77;2.60;;;;;;;10.57;56.65;101539.88;5037008;28;20487;-83
2021/04/10 06:58:11;;;;;;;9.73;2.35;;;;;;;10.56;56.54;101546.06;5039747;28;20086;-84
2021/04/10 07:00:37;;;;;;;9.27;2.67;;;;;;;10.52;56.51;101549.63;5041935;28;20140;-84
2021/04/10 07:03:04;;;;;;;10.85;3.03;;;;;;;10.61;56.52;101543.38;5042730;28;20029;-84
2021/04/10 07:05:31;;;;;;;6.82;2.65;;;;;;;10.70;56.53;101553.00;5048185;28;20116;-84
2021/04/10 07:07:57;;;;;;;8.13;2.55;;;;;;;10.72;56.51;101556.53;5031007;28;20053;-84
2021/04/10 07:10:24;;;;;;;8.60;2.67;;;;;;;10.78;56.49;101564.41;5040611;28;20087;-83
2021/04/10 07:12:50;;;;;;;8.38;2.28;;;;;;;10.87;56.29;101572.28;5034573;28;20082;-84
2021/04/10 07:15:18;;;;;;;6.10;2.72;;;;;;;10.92;55.86;101575.75;5031916;28;20026;-84
2021/04/10 07:17:50;;;;;;;7.38;2.15;;;;;;;10.97;55.71;101579.25;5048772;28;20054;-84
2021/04/10 07:20:24;;;;;;;10.75;2.67;;;;;;;10.98;56.10;101581.00;5043800;28;20112;-84
2021/04/10 07:23:01;;;;;;;9.05;4.05;;;;;;;11.06;55.86;101577.41;5047397;28;20052;-84
2021/04/10 07:25:29;;;;;;;15.80;3.08;;;;;;;11.04;55.73;101573.88;5053018;28;20031;-84
2021/04/10 07:28:16;;;;;;;10.07;2.97;;;;;;;11.09;55.60;101578.25;5052179;28;20037;-83
2021/04/10 07:34:01;;;;;;;13.55;3.28;;;;;;;11.27;55.28;101578.94;5071519;28;20425;-84
2021/04/10 07:36:27;;;;;;;10.95;2.75;;;;;;;11.28;54.90;101573.63;5046625;28;20041;-84
2021/04/10 07:38:58;;;;;;;13.25;3.67;;;;;;;11.36;55.00;101570.00;5047604;28;20021;-84
2021/04/10 07:41:24;;;;;;;9.52;2.60;;;;;;;11.38;55.34;101565.56;5046707;28;20017;-83
2021/04/10 07:43:51;;;;;;;6.65;2.58;;;;;;;11.44;54.58;101568.13;5047028;28;20032;-84
2021/04/10 07:52:02;;;;;;;10.85;2.75;;;;;;;11.77;53.82;101565.94;5010696;28;20384;-83
2021/04/10 07:54:31;;;;;;;5.85;2.55;;;;;;;11.82;54.13;101569.41;5009433;27;20087;-83
2021/04/10 07:59:54;;;;;;;9.70;2.22;;;;;;;11.93;53.15;101583.44;5064128;27;20425;-83
2021/04/10 08:02:22;;;;;;;7.25;2.65;;;;;;;11.91;53.17;101585.25;5050436;28;20079;-83
2021/04/10 08:04:57;;;;;;;14.00;4.25;;;;;;;12.00;52.87;101583.38;5049390;28;20128;-83
2021/04/10 08:07:26;;;;;;;9.82;3.22;;;;;;;12.01;53.08;101579.81;5035559;28;20476;-84
2021/04/10 08:10:05;;;;;;;6.57;3.45;;;;;;;12.09;53.39;101591.22;5041855;28;20377;-83
2021/04/10 08:12:33;;;;;;;8.30;2.63;;;;;;;12.12;53.04;101593.81;5040429;28;20083;-83
2021/04/10 08:15:01;;;;;;;7.15;2.60;;;;;;;12.12;52.52;101585.84;5046099;28;20436;-83
2021/04/10 08:20:25;;;;;;;6.93;2.35;;;;;;;12.25;52.48;101579.47;5058354;27;20421;-83
2021/04/10 08:22:53;;;;;;;4.00;2.22;;;;;;;12.33;52.21;101575.81;5063723;28;20055;-86
2021/04/10 08:25:34;;;;;;;9.82;2.20;;;;;;;12.49;51.27;101572.00;5058377;28;20052;-83
2021/04/10 08:28:01;;;;;;;6.22;2.13;;;;;;;12.52;51.06;101569.28;5068067;28;20036;-83
2021/04/10 08:30:27;;;;;;;7.55;1.80;;;;;;;12.54;51.61;101570.16;5069076;28;20137;-83
2021/04/10 08:32:53;;;;;;;5.38;2.08;;;;;;;12.65;51.08;101566.44;5066187;28;20367;-82
2021/04/10 08:35:20;;;;;;;6.85;2.17;;;;;;;12.69;50.94;101562.84;5063693;28;20117;-83
2021/04/10 08:37:52;;;;;;;6.65;2.15;;;;;;;12.79;50.58;101565.28;5055292;28;20025;-82
2021/04/10 08:40:24;;;;;;;10.15;1.95;;;;;;;12.88;50.08;101572.22;5067669;28;20117;-84
2021/04/10 08:42:55;;;;;;;5.85;1.95;;;;;;;12.88;49.20;101574.88;5065733;28;20032;-83
2021/04/10 08:45:28;;;;;;;9.73;2.83;;;;;;;12.95;49.10;101570.34;5067693;28;20017;-84
2021/04/10 08:48:00;;;;;;;;;;;;;;;13.07;48.93;101572.78;5068384;28;20090;-84
2021/04/10 08:50:28;;;;;;;;;;;;;;;12.98;48.30;101572.06;5054932;28;19987;-81
2021/04/10 08:52:54;;;;;;;6.95;2.45;;;;;;;12.86;48.79;101576.72;5057244;28;19956;-84
2021/04/10 08:55:25;;;;;;;6.07;1.92;;;;;;;12.79;48.60;101572.41;5054193;28;20083;-83
2021/04/10 08:57:52;;;;;;;5.63;1.75;;;;;;;12.78;48.99;101575.94;5055778;28;20031;-81
2021/04/10 09:00:28;;;;;;;9.18;2.05;;;;;;;12.86;48.77;101571.38;5056359;28;20107;-81
2021/04/10 09:05:48;;;;;;;10.77;2.47;;;;;;;12.83;48.46;101571.44;5071366;28;20410;-83
2021/04/10 09:08:27;;;;;;;9.82;2.20;;;;;;;12.84;48.31;101575.84;5048216;28;20037;-83
2021/04/10 09:10:56;;;;;;;6.85;1.88;;;;;;;12.85;48.09;101576.75;5046550;28;20061;-82
2021/04/10 09:13:24;;;;;;;9.23;2.15;;;;;;;12.84;48.46;101578.50;5046990;28;20052;-83
2021/04/10 09:16:27;;;;;;;4.15;2.30;;;;;;;12.93;48.50;101573.03;5045510;28;20036;-83
2021/04/10 09:19:19;;;;;;;8.27;3.20;;;;;;;12.94;48.62;101581.88;5042528;28;20040;-83
2021/04/10 09:24:45;;;;;;;9.38;2.40;;;;;;;12.91;48.82;101572.19;5104838;27;20356;-82
2021/04/10 09:27:28;;;;;;;3.83;2.22;;;;;;;12.95;48.50;101580.97;5083153;28;20033;-81
2021/04/10 09:29:59;;;;;;;6.90;2.00;;;;;;;12.95;48.78;101578.31;5078800;28;20442;-81
2021/04/10 09:37:57;;;;;;;9.68;2.50;;;;;;;12.95;48.89;101581.84;5141730;27;20371;-79
2021/04/10 09:40:45;;;;;;;8.13;2.90;;;;;;;12.94;48.55;101580.09;5124480;27;20366;-80
2021/04/10 09:43:15;;;;;;;10.18;2.28;;;;;;;12.90;48.74;101578.41;5122277;27;20115;-80
2021/04/10 09:45:42;;;;;;;5.78;2.47;;;;;;;13.01;48.56;101574.66;5116374;27;20051;-81
2021/04/10 09:53:29;;;;;;;10.80;2.70;;;;;;;13.22;48.69;101573.38;5032605;27;1571763;-80
2021/04/10 09:56:06;;;;;;;8.95;2.65;;;;;;;13.24;47.74;101583.06;5077999;28;20621;-82
2021/04/10 09:58:36;;;;;;;7.55;2.55;;;;;;;13.26;48.03;101575.97;5061898;28;20468;-83
2021/04/10 10:01:07;;;;;;;7.22;2.30;;;;;;;13.41;47.51;101569.47;5048794;28;20065;-87
2021/04/10 10:03:33;;;;;;;7.57;2.10;;;;;;;13.49;47.47;101565.78;5059572;28;20521;-76
2021/04/10 10:06:00;;;;;;;4.55;2.13;;;;;;;13.59;47.96;101570.00;5060649;28;20037;-83
2021/04/10 10:08:31;;;;;;;8.13;3.08;;;;;;;13.80;48.05;101565.16;5061939;28;20984;-82
2021/04/10 10:11:05;;;;;;;8.63;2.53;;;;;;;13.86;47.97;101563.22;5058699;28;20038;-86
2021/04/10 10:13:34;;;;;;;6.05;2.00;;;;;;;13.70;48.29;101562.66;5050345;28;20112;-86
2021/04/10 10:16:01;;;;;;;11.23;2.33;;;;;;;13.72;48.78;101559.97;5047367;28;20504;-85
2021/04/10 10:18:33;;;;;;;8.07;2.20;;;;;;;13.74;49.48;101556.38;5057022;28;20025;-85
2021/04/10 10:23:41;;;;;;;9.35;2.80;;;;;;;13.92;49.44;101554.22;5052734;27;789970;-87
2021/04/10 10:26:12;;;;;;;7.00;2.00;;;;;;;13.91;49.89;101545.34;5060063;28;20041;-85
2021/04/10 10:28:43;;;;;;;8.07;2.70;;;;;;;13.93;50.38;101539.09;5062358;28;20029;-86
2021/04/10 10:31:14;;;;;;;7.65;2.38;;;;;;;13.94;50.08;101538.19;5062031;28;20029;-80
2021/04/10 10:33:41;;;;;;;6.13;2.47;;;;;;;13.86;49.68;101533.91;5059945;28;20041;-86
2021/04/10 10:36:08;;;;;;;9.40;2.28;;;;;;;13.81;50.00;101527.81;5052235;28;20022;-85
2021/04/10 10:38:38;;;;;;;6.85;2.33;;;;;;;13.82;50.35;101532.25;5045253;28;20112;-84
2021/04/10 10:41:05;;;;;;;7.50;2.67;;;;;;;13.71;50.10;101528.94;5035507;28;20056;-83
2021/04/10 10:43:33;;;;;;;10.65;3.35;;;;;;;13.54;50.12;101526.63;5035771;28;20036;-83
2021/04/10 10:46:02;;;;;;;10.55;2.15;;;;;;;13.42;50.24;101527.75;5052672;28;20041;-84
2021/04/10 10:48:31;;;;;;;7.97;2.33;;;;;;;13.32;50.65;101520.84;5049284;28;20031;-83
2021/04/10 10:53:45;;;;;;;8.55;2.20;;;;;;;13.08;50.64;101517.78;5070315;27;20443;-84
2021/04/10 11:01:40;;;;;;;8.95;2.63;;;;;;;12.83;51.62;101506.75;5079610;27;20476;-85
2021/04/10 11:06:52;;;;;;;5.43;2.20;;;;;;;12.69;52.39;101488.38;5057153;28;20405;-85
2021/04/10 11:12:13;;;;;;;7.20;2.97;;;;;;;12.84;52.20;101482.78;5073819;27;20589;-85
2021/04/10 11:14:42;;;;;;;12.63;2.60;;;;;;;12.76;52.04;101490.00;5063217;28;20025;-86
2021/04/10 11:17:10;;;;;;;13.05;2.70;;;;;;;12.82;52.23;101484.56;5044824;28;20033;-83
2021/04/10 11:19:42;;;;;;;10.25;3.30;;;;;;;12.78;52.70;101482.88;5051035;28;20030;-77
2021/04/10 11:22:14;;;;;;;7.15;2.53;;;;;;;12.77;52.85;101481.13;5036871;28;20055;-81
2021/04/10 11:24:42;;;;;;;6.65;2.42;;;;;;;12.79;52.88;101481.97;5044708;28;20063;-83
2021/04/10 11:30:12;;;;;;;14.57;2.60;;;;;;;12.75;53.02;101478.50;5069993;27;20909;-83
2021/04/10 11:32:42;;;;;;;7.35;2.67;;;;;;;12.67;53.05;101463.59;5050160;28;20040;-83
2021/04/10 11:35:15;;;;;;;8.43;2.50;;;;;;;12.67;52.97;101474.22;5049215;28;20032;-84
2021/04/10 11:37:44;;;;;;;6.90;2.17;;;;;;;12.69;52.92;101469.78;5029732;28;20385;-84
2021/04/10 11:40:24;;;;;;;9.60;2.70;;;;;;;12.70;53.02;101458.25;5032504;28;20025;-84
2021/04/10 11:42:53;;;;;;;7.32;2.30;;;;;;;12.65;53.28;101454.75;5030872;28;20109;-84
2021/04/10 11:51:03;;;;;;;6.10;2.55;;;;;;;12.78;52.41;101450.97;5076554;28;20158;-83
2021/04/10 11:53:37;;;;;;;9.05;2.42;;;;;;;12.88;53.15;101444.56;5060478;28;20037;-83
2021/04/10 11:56:28;;;;;;;46.53;20.88;;;;;;;13.06;53.49;101442.44;5062838;28;20029;-83
2021/04/10 11:59:09;;;;;;;10.73;5.78;;;;;;;13.21;52.97;101438.59;5059201;28;20067;-83
2021/04/10 12:01:48;;;;;;;12.88;3.10;;;;;;;13.16;52.88;101441.34;5062759;28;20032;-83
2021/04/10 12:04:36;;;;;;;7.45;2.47;;;;;;;13.18;51.77;101433.31;5064114;28;20031;-84
2021/04/10 12:07:15;;;;;;;6.88;2.60;;;;;;;13.14;52.41;101437.84;5042534;28;20037;-84
2021/04/10 12:09:43;;;;;;;8.80;3.40;;;;;;;12.99;52.33;101432.84;5061197;28;20744;-82
2021/04/10 12:12:12;;;;;;;10.23;2.55;;;;;;;12.85;52.93;101428.69;5066347;28;20516;-83
2021/04/10 12:14:42;;;;;;;7.90;2.83;;;;;;;12.67;53.42;101426.38;5063149;28;20392;-84
2021/04/10 12:17:12;;;;;;;8.80;2.28;;;;;;;12.61;53.57;101428.25;5064225;28;20046;-84
2021/04/10 12:19:39;;;;;;;7.82;2.25;;;;;;;12.48;54.01;101425.88;5065024;28;20033;-83
2021/04/10 12:22:05;;;;;;;8.88;2.97;;;;;;;12.42;54.16;101417.09;5061870;28;20112;-83
2021/04/10 12:24:31;;;;;;;5.90;2.72;;;;;;;12.32;54.31;101423.47;5043642;28;20567;-84
2021/04/10 12:26:58;;;;;;;8.52;2.35;;;;;;;12.30;54.47;101420.84;5040586;28;20074;-82
2021/04/10 12:29:27;;;;;;;6.00;2.20;;;;;;;12.23;55.08;101419.19;5064341;28;20364;-83
2021/04/10 12:31:53;;;;;;;7.78;2.30;;;;;;;12.20;54.77;101415.72;5064194;28;20112;-83
2021/04/10 12:34:19;;;;;;;7.32;2.65;;;;;;;12.14;55.20;101406.94;5062649;28;20422;-85
2021/04/10 12:36:46;;;;;;;7.00;2.42;;;;;;;12.09;55.55;101410.59;5065773;28;20033;-83
2021/04/10 12:39:14;;;;;;;5.57;2.40;;;;;;;12.09;55.82;101400.84;5064220;28;20032;-85
2021/04/10 12:41:40;;;;;;;10.88;2.63;;;;;;;12.10;55.67;101401.72;5061746;28;20495;-84
2021/04/10 12:44:07;;;;;;;9.70;2.88;;;;;;;12.07;56.02;101396.47;5064888;28;20036;-86
2021/04/10 12:46:33;;;;;;;8.50;2.80;;;;;;;12.00;56.44;101398.38;5040862;28;20037;-83